sensor_id;sensor_type;location;lat;lon;timestamp;P1;durP1;ratioP1;P2;durP2;ratioP2
11338;SDS011;5724;42.684;23.252;2023-10-13T00:00:29;8.82;;;7.38;;
11338;SDS011;5724;42.684;23.252;2023-10-13T00:02:56;8.38;;;7.57;;
11338;SDS011;5724;42.684;23.252;2023-10-13T00:05:26;9.35;;;7.03;;
11338;SDS011;5724;42.684;23.252;2023-10-13T00:07:58;8.18;;;7.43;;
11338;SDS011;5724;42.684;23.252;2023-10-13T00:10:28;8.05;;;7.30;;
11338;SDS011;5724;42.684;23.252;2023-10-13T00:12:58;8.25;;;7.43;;
11338;SDS011;5724;42.684;23.252;2023-10-13T00:15:47;7.75;;;7.03;;
11338;SDS011;5724;42.684;23.252;2023-10-13T00:20:52;9.90;;;7.38;;
11338;SDS011;5724;42.684;23.252;2023-10-13T00:23:21;7.70;;;6.88;;
11338;SDS011;5724;42.684;23.252;2023-10-13T00:25:48;13.15;;;7.95;;
11338;SDS011;5724;42.684;23.252;2023-10-13T00:28:27;8.95;;;7.55;;
11338;SDS011;5724;42.684;23.252;2023-10-13T00:31:00;12.10;;;7.40;;
11338;SDS011;5724;42.684;23.252;2023-10-13T00:33:36;9.18;;;7.38;;
11338;SDS011;5724;42.684;23.252;2023-10-13T00:36:07;11.00;;;7.80;;
11338;SDS011;5724;42.684;23.252;2023-10-13T00:38:34;7.93;;;7.15;;
11338;SDS011;5724;42.684;23.252;2023-10-13T00:41:00;8.48;;;7.45;;
11338;SDS011;5724;42.684;23.252;2023-10-13T00:43:49;10.10;;;7.20;;
11338;SDS011;5724;42.684;23.252;2023-10-13T00:46:32;16.15;;;7.80;;
11338;SDS011;5724;42.684;23.252;2023-10-13T00:49:00;8.65;;;7.75;;
11338;SDS011;5724;42.684;23.252;2023-10-13T00:51:29;9.13;;;7.00;;
11338;SDS011;5724;42.684;23.252;2023-10-13T00:54:03;10.40;;;7.65;;
11338;SDS011;5724;42.684;23.252;2023-10-13T00:56:39;9.35;;;7.63;;
11338;SDS011;5724;42.684;23.252;2023-10-13T00:59:14;8.05;;;7.35;;
11338;SDS011;5724;42.684;23.252;2023-10-13T01:01:41;7.45;;;6.85;;
11338;SDS011;5724;42.684;23.252;2023-10-13T01:04:10;12.93;;;8.20;;
11338;SDS011;5724;42.684;23.252;2023-10-13T01:06:39;8.55;;;7.85;;
11338;SDS011;5724;42.684;23.252;2023-10-13T01:09:09;10.35;;;7.63;;
11338;SDS011;5724;42.684;23.252;2023-10-13T01:11:38;8.32;;;7.63;;
11338;SDS011;5724;42.684;23.252;2023-10-13T01:14:13;7.88;;;7.18;;
11338;SDS011;5724;42.684;23.252;2023-10-13T01:16:42;7.93;;;7.10;;
11338;SDS011;5724;42.684;23.252;2023-10-13T01:19:10;11.90;;;8.07;;
11338;SDS011;5724;42.684;23.252;2023-10-13T01:21:37;8.77;;;7.82;;
11338;SDS011;5724;42.684;23.252;2023-10-13T01:24:06;8.32;;;7.55;;
11338;SDS011;5724;42.684;23.252;2023-10-13T01:26:33;8.73;;;7.80;;
11338;SDS011;5724;42.684;23.252;2023-10-13T01:29:04;7.80;;;7.30;;
11338;SDS011;5724;42.684;23.252;2023-10-13T01:31:42;9.10;;;8.27;;
11338;SDS011;5724;42.684;23.252;2023-10-13T01:34:12;10.75;;;8.45;;
11338;SDS011;5724;42.684;23.252;2023-10-13T01:36:38;9.18;;;8.25;;
11338;SDS011;5724;42.684;23.252;2023-10-13T01:39:05;9.15;;;8.25;;
11338;SDS011;5724;42.684;23.252;2023-10-13T01:41:31;13.88;;;7.72;;
11338;SDS011;5724;42.684;23.252;2023-10-13T01:43:57;8.25;;;7.43;;
11338;SDS011;5724;42.684;23.252;2023-10-13T01:46:22;7.80;;;7.10;;
11338;SDS011;5724;42.684;23.252;2023-10-13T01:48:48;13.60;;;8.00;;
11338;SDS011;5724;42.684;23.252;2023-10-13T01:51:13;9.43;;;8.52;;
11338;SDS011;5724;42.684;23.252;2023-10-13T01:53:41;9.05;;;8.30;;
11338;SDS011;5724;42.684;23.252;2023-10-13T01:56:07;9.10;;;8.20;;
11338;SDS011;5724;42.684;23.252;2023-10-13T01:58:37;10.90;;;8.23;;
11338;SDS011;5724;42.684;23.252;2023-10-13T02:01:06;9.82;;;8.82;;
11338;SDS011;5724;42.684;23.252;2023-10-13T02:03:33;8.70;;;8.02;;
11338;SDS011;5724;42.684;23.252;2023-10-13T02:05:58;8.93;;;8.02;;
11338;SDS011;5724;42.684;23.252;2023-10-13T02:08:29;10.02;;;8.13;;
11338;SDS011;5724;42.684;23.252;2023-10-13T02:10:56;9.65;;;8.27;;
11338;SDS011;5724;42.684;23.252;2023-10-13T02:13:24;9.00;;;8.20;;
11338;SDS011;5724;42.684;23.252;2023-10-13T02:15:54;14.18;;;8.57;;
11338;SDS011;5724;42.684;23.252;2023-10-13T02:18:27;8.73;;;7.82;;
11338;SDS011;5724;42.684;23.252;2023-10-13T02:20:55;11.38;;;8.38;;
11338;SDS011;5724;42.684;23.252;2023-10-13T02:23:29;9.00;;;8.02;;
11338;SDS011;5724;42.684;23.252;2023-10-13T02:25:55;9.35;;;8.52;;
11338;SDS011;5724;42.684;23.252;2023-10-13T02:28:28;9.98;;;8.05;;
11338;SDS011;5724;42.684;23.252;2023-10-13T02:31:01;11.13;;;8.95;;
11338;SDS011;5724;42.684;23.252;2023-10-13T02:33:28;10.50;;;9.02;;
11338;SDS011;5724;42.684;23.252;2023-10-13T02:36:02;9.60;;;8.77;;
11338;SDS011;5724;42.684;23.252;2023-10-13T02:38:30;8.80;;;8.00;;
11338;SDS011;5724;42.684;23.252;2023-10-13T02:41:10;11.52;;;8.85;;
11338;SDS011;5724;42.684;23.252;2023-10-13T02:43:37;10.38;;;9.55;;
11338;SDS011;5724;42.684;23.252;2023-10-13T02:46:03;10.25;;;9.18;;
11338;SDS011;5724;42.684;23.252;2023-10-13T02:48:29;9.88;;;9.15;;
11338;SDS011;5724;42.684;23.252;2023-10-13T02:51:05;9.98;;;9.05;;
11338;SDS011;5724;42.684;23.252;2023-10-13T02:53:41;10.25;;;9.35;;
11338;SDS011;5724;42.684;23.252;2023-10-13T02:56:07;9.68;;;8.65;;
11338;SDS011;5724;42.684;23.252;2023-10-13T02:58:33;12.65;;;9.32;;
11338;SDS011;5724;42.684;23.252;2023-10-13T03:01:05;12.05;;;9.38;;
11338;SDS011;5724;42.684;23.252;2023-10-13T03:03:42;12.98;;;9.40;;
11338;SDS011;5724;42.684;23.252;2023-10-13T03:06:09;13.23;;;8.80;;
11338;SDS011;5724;42.684;23.252;2023-10-13T03:08:37;9.82;;;8.65;;
11338;SDS011;5724;42.684;23.252;2023-10-13T03:11:03;10.82;;;9.32;;
11338;SDS011;5724;42.684;23.252;2023-10-13T03:13:30;9.80;;;9.00;;
11338;SDS011;5724;42.684;23.252;2023-10-13T03:15:58;10.40;;;9.40;;
11338;SDS011;5724;42.684;23.252;2023-10-13T03:18:24;10.95;;;9.60;;
11338;SDS011;5724;42.684;23.252;2023-10-13T03:20:50;12.77;;;10.27;;
11338;SDS011;5724;42.684;23.252;2023-10-13T03:23:22;11.32;;;10.30;;
11338;SDS011;5724;42.684;23.252;2023-10-13T03:25:49;11.80;;;10.05;;
11338;SDS011;5724;42.684;23.252;2023-10-13T03:28:15;11.07;;;10.27;;
11338;SDS011;5724;42.684;23.252;2023-10-13T03:30:42;11.23;;;10.07;;
11338;SDS011;5724;42.684;23.252;2023-10-13T03:33:08;12.35;;;9.63;;
11338;SDS011;5724;42.684;23.252;2023-10-13T03:35:37;10.73;;;9.63;;
11338;SDS011;5724;42.684;23.252;2023-10-13T03:38:04;11.95;;;10.05;;
11338;SDS011;5724;42.684;23.252;2023-10-13T03:40:36;12.35;;;11.00;;
11338;SDS011;5724;42.684;23.252;2023-10-13T03:43:02;12.25;;;10.60;;
11338;SDS011;5724;42.684;23.252;2023-10-13T03:45:37;11.73;;;9.52;;
11338;SDS011;5724;42.684;23.252;2023-10-13T03:48:06;12.25;;;10.00;;
11338;SDS011;5724;42.684;23.252;2023-10-13T03:50:37;10.90;;;9.57;;
11338;SDS011;5724;42.684;23.252;2023-10-13T03:53:13;13.10;;;10.10;;
11338;SDS011;5724;42.684;23.252;2023-10-13T03:55:39;12.00;;;9.75;;
11338;SDS011;5724;42.684;23.252;2023-10-13T03:58:05;11.48;;;10.25;;
11338;SDS011;5724;42.684;23.252;2023-10-13T04:00:32;11.75;;;9.55;;
11338;SDS011;5724;42.684;23.252;2023-10-13T04:02:57;16.23;;;9.43;;
11338;SDS011;5724;42.684;23.252;2023-10-13T04:05:41;14.18;;;8.90;;
11338;SDS011;5724;42.684;23.252;2023-10-13T04:08:10;10.57;;;9.52;;
11338;SDS011;5724;42.684;23.252;2023-10-13T04:10:55;13.88;;;10.23;;
11338;SDS011;5724;42.684;23.252;2023-10-13T04:13:22;12.57;;;11.25;;
11338;SDS011;5724;42.684;23.252;2023-10-13T04:16:07;10.57;;;9.65;;
11338;SDS011;5724;42.684;23.252;2023-10-13T04:18:45;15.68;;;11.43;;
11338;SDS011;5724;42.684;23.252;2023-10-13T04:21:17;11.90;;;10.68;;
11338;SDS011;5724;42.684;23.252;2023-10-13T04:26:50;11.23;;;10.05;;
11338;SDS011;5724;42.684;23.252;2023-10-13T04:29:36;21.85;;;10.43;;
11338;SDS011;5724;42.684;23.252;2023-10-13T04:32:31;10.75;;;9.85;;
11338;SDS011;5724;42.684;23.252;2023-10-13T04:35:03;13.90;;;10.63;;
11338;SDS011;5724;42.684;23.252;2023-10-13T04:37:43;18.10;;;12.10;;
11338;SDS011;5724;42.684;23.252;2023-10-13T04:40:40;15.93;;;11.68;;
11338;SDS011;5724;42.684;23.252;2023-10-13T04:43:23;14.32;;;11.35;;
11338;SDS011;5724;42.684;23.252;2023-10-13T04:45:59;14.27;;;10.98;;
11338;SDS011;5724;42.684;23.252;2023-10-13T04:48:39;16.08;;;11.05;;
11338;SDS011;5724;42.684;23.252;2023-10-13T04:51:05;14.57;;;12.02;;
11338;SDS011;5724;42.684;23.252;2023-10-13T04:53:59;17.48;;;11.70;;
11338;SDS011;5724;42.684;23.252;2023-10-13T04:56:25;18.80;;;12.10;;
11338;SDS011;5724;42.684;23.252;2023-10-13T04:59:23;18.70;;;13.05;;
11338;SDS011;5724;42.684;23.252;2023-10-13T05:02:02;20.70;;;11.95;;
11338;SDS011;5724;42.684;23.252;2023-10-13T05:04:47;15.65;;;12.15;;
11338;SDS011;5724;42.684;23.252;2023-10-13T05:07:31;15.13;;;11.15;;
11338;SDS011;5724;42.684;23.252;2023-10-13T05:10:16;15.82;;;11.30;;
11338;SDS011;5724;42.684;23.252;2023-10-13T05:13:01;11.55;;;10.55;;
11338;SDS011;5724;42.684;23.252;2023-10-13T05:15:48;13.90;;;10.57;;
11338;SDS011;5724;42.684;23.252;2023-10-13T05:18:33;12.30;;;11.13;;
11338;SDS011;5724;42.684;23.252;2023-10-13T05:21:18;14.73;;;9.93;;
11338;SDS011;5724;42.684;23.252;2023-10-13T05:24:03;13.70;;;11.02;;
11338;SDS011;5724;42.684;23.252;2023-10-13T05:26:47;16.13;;;11.07;;
11338;SDS011;5724;42.684;23.252;2023-10-13T05:29:51;18.33;;;10.60;;
11338;SDS011;5724;42.684;23.252;2023-10-13T05:32:35;16.92;;;11.27;;
11338;SDS011;5724;42.684;23.252;2023-10-13T05:35:20;11.57;;;10.30;;
11338;SDS011;5724;42.684;23.252;2023-10-13T05:38:04;14.10;;;10.82;;
11338;SDS011;5724;42.684;23.252;2023-10-13T05:41:06;14.68;;;10.50;;
11338;SDS011;5724;42.684;23.252;2023-10-13T05:43:50;20.83;;;11.07;;
11338;SDS011;5724;42.684;23.252;2023-10-13T05:46:34;11.90;;;10.70;;
11338;SDS011;5724;42.684;23.252;2023-10-13T05:49:04;17.30;;;10.85;;
11338;SDS011;5724;42.684;23.252;2023-10-13T05:51:36;16.27;;;10.70;;
11338;SDS011;5724;42.684;23.252;2023-10-13T05:54:21;17.25;;;10.75;;
11338;SDS011;5724;42.684;23.252;2023-10-13T05:56:47;13.57;;;10.40;;
11338;SDS011;5724;42.684;23.252;2023-10-13T05:59:32;20.45;;;10.82;;
11338;SDS011;5724;42.684;23.252;2023-10-13T06:02:18;12.38;;;10.48;;
11338;SDS011;5724;42.684;23.252;2023-10-13T06:05:03;19.90;;;11.60;;
11338;SDS011;5724;42.684;23.252;2023-10-13T06:07:48;11.88;;;10.60;;
11338;SDS011;5724;42.684;23.252;2023-10-13T06:10:32;17.77;;;11.02;;
11338;SDS011;5724;42.684;23.252;2023-10-13T06:13:16;16.27;;;10.95;;
11338;SDS011;5724;42.684;23.252;2023-10-13T06:16:04;15.95;;;11.45;;
11338;SDS011;5724;42.684;23.252;2023-10-13T06:18:49;15.88;;;10.95;;
11338;SDS011;5724;42.684;23.252;2023-10-13T06:21:33;19.13;;;10.75;;
11338;SDS011;5724;42.684;23.252;2023-10-13T06:24:17;20.10;;;11.95;;
11338;SDS011;5724;42.684;23.252;2023-10-13T06:27:01;19.42;;;13.00;;
11338;SDS011;5724;42.684;23.252;2023-10-13T06:29:45;18.17;;;11.05;;
11338;SDS011;5724;42.684;23.252;2023-10-13T06:32:11;13.55;;;11.05;;
11338;SDS011;5724;42.684;23.252;2023-10-13T06:34:37;25.75;;;11.77;;
11338;SDS011;5724;42.684;23.252;2023-10-13T06:37:10;17.77;;;11.70;;
11338;SDS011;5724;42.684;23.252;2023-10-13T06:39:55;13.18;;;11.93;;
11338;SDS011;5724;42.684;23.252;2023-10-13T06:42:23;22.55;;;12.38;;
11338;SDS011;5724;42.684;23.252;2023-10-13T06:44:52;16.98;;;12.50;;
11338;SDS011;5724;42.684;23.252;2023-10-13T06:47:19;19.08;;;12.60;;
11338;SDS011;5724;42.684;23.252;2023-10-13T06:49:46;16.63;;;13.05;;
11338;SDS011;5724;42.684;23.252;2023-10-13T06:52:13;24.33;;;14.38;;
11338;SDS011;5724;42.684;23.252;2023-10-13T06:54:41;25.15;;;15.90;;
11338;SDS011;5724;42.684;23.252;2023-10-13T06:57:08;24.02;;;15.25;;
11338;SDS011;5724;42.684;23.252;2023-10-13T06:59:39;23.67;;;15.05;;
11338;SDS011;5724;42.684;23.252;2023-10-13T07:02:07;31.58;;;15.77;;
11338;SDS011;5724;42.684;23.252;2023-10-13T07:04:35;34.42;;;17.42;;
11338;SDS011;5724;42.684;23.252;2023-10-13T07:07:10;26.13;;;16.38;;
11338;SDS011;5724;42.684;23.252;2023-10-13T07:09:38;28.58;;;17.58;;
11338;SDS011;5724;42.684;23.252;2023-10-13T07:12:14;29.85;;;16.58;;
11338;SDS011;5724;42.684;23.252;2023-10-13T07:14:45;28.00;;;16.70;;
11338;SDS011;5724;42.684;23.252;2023-10-13T07:17:17;27.75;;;18.05;;
11338;SDS011;5724;42.684;23.252;2023-10-13T07:19:54;35.65;;;17.60;;
11338;SDS011;5724;42.684;23.252;2023-10-13T07:22:39;24.85;;;17.85;;
11338;SDS011;5724;42.684;23.252;2023-10-13T07:25:05;34.67;;;19.08;;
11338;SDS011;5724;42.684;23.252;2023-10-13T07:27:34;28.92;;;17.75;;
11338;SDS011;5724;42.684;23.252;2023-10-13T07:30:00;36.28;;;19.58;;
11338;SDS011;5724;42.684;23.252;2023-10-13T07:32:52;24.00;;;18.60;;
11338;SDS011;5724;42.684;23.252;2023-10-13T07:35:18;29.85;;;18.55;;
11338;SDS011;5724;42.684;23.252;2023-10-13T07:37:45;27.38;;;18.33;;
11338;SDS011;5724;42.684;23.252;2023-10-13T07:40:17;27.38;;;17.50;;
11338;SDS011;5724;42.684;23.252;2023-10-13T07:42:53;25.33;;;18.75;;
11338;SDS011;5724;42.684;23.252;2023-10-13T07:45:38;29.55;;;17.40;;
11338;SDS011;5724;42.684;23.252;2023-10-13T07:48:07;21.92;;;18.15;;
11338;SDS011;5724;42.684;23.252;2023-10-13T07:50:58;28.25;;;17.65;;
11338;SDS011;5724;42.684;23.252;2023-10-13T07:53:51;37.78;;;18.23;;
11338;SDS011;5724;42.684;23.252;2023-10-13T07:56:18;26.05;;;17.05;;
11338;SDS011;5724;42.684;23.252;2023-10-13T07:58:44;24.38;;;17.45;;
11338;SDS011;5724;42.684;23.252;2023-10-13T08:01:25;23.27;;;16.77;;
11338;SDS011;5724;42.684;23.252;2023-10-13T08:03:51;22.80;;;16.58;;
11338;SDS011;5724;42.684;23.252;2023-10-13T08:06:43;27.30;;;16.95;;
11338;SDS011;5724;42.684;23.252;2023-10-13T08:09:10;23.75;;;15.88;;
11338;SDS011;5724;42.684;23.252;2023-10-13T08:11:55;26.75;;;16.63;;
11338;SDS011;5724;42.684;23.252;2023-10-13T08:14:21;23.60;;;17.38;;
11338;SDS011;5724;42.684;23.252;2023-10-13T08:16:54;26.67;;;16.58;;
11338;SDS011;5724;42.684;23.252;2023-10-13T08:19:25;24.85;;;17.50;;
11338;SDS011;5724;42.684;23.252;2023-10-13T08:21:52;25.90;;;17.42;;
11338;SDS011;5724;42.684;23.252;2023-10-13T08:24:27;25.70;;;17.02;;
11338;SDS011;5724;42.684;23.252;2023-10-13T08:27:05;30.58;;;16.77;;
11338;SDS011;5724;42.684;23.252;2023-10-13T08:29:51;18.08;;;16.00;;
11338;SDS011;5724;42.684;23.252;2023-10-13T08:32:19;26.65;;;15.88;;
11338;SDS011;5724;42.684;23.252;2023-10-13T08:34:54;30.05;;;14.57;;
11338;SDS011;5724;42.684;23.252;2023-10-13T08:37:24;30.77;;;12.93;;
11338;SDS011;5724;42.684;23.252;2023-10-13T08:39:51;28.30;;;12.20;;
11338;SDS011;5724;42.684;23.252;2023-10-13T08:42:26;26.92;;;11.77;;
11338;SDS011;5724;42.684;23.252;2023-10-13T08:45:15;29.55;;;12.57;;
11338;SDS011;5724;42.684;23.252;2023-10-13T08:47:53;28.45;;;11.90;;
11338;SDS011;5724;42.684;23.252;2023-10-13T08:50:37;27.13;;;11.38;;
11338;SDS011;5724;42.684;23.252;2023-10-13T08:58:34;24.60;;;10.00;;
11338;SDS011;5724;42.684;23.252;2023-10-13T09:01:19;21.08;;;11.93;;
11338;SDS011;5724;42.684;23.252;2023-10-13T09:07:01;35.13;;;10.73;;
11338;SDS011;5724;42.684;23.252;2023-10-13T09:09:44;36.15;;;10.10;;
11338;SDS011;5724;42.684;23.252;2023-10-13T09:12:16;29.88;;;9.15;;
11338;SDS011;5724;42.684;23.252;2023-10-13T09:14:58;28.92;;;10.25;;
11338;SDS011;5724;42.684;23.252;2023-10-13T09:17:47;29.67;;;9.77;;
11338;SDS011;5724;42.684;23.252;2023-10-13T09:20:18;25.65;;;9.57;;
11338;SDS011;5724;42.684;23.252;2023-10-13T09:23:09;19.50;;;9.02;;
11338;SDS011;5724;42.684;23.252;2023-10-13T09:25:49;27.90;;;8.68;;
11338;SDS011;5724;42.684;23.252;2023-10-13T09:28:34;24.63;;;9.43;;
11338;SDS011;5724;42.684;23.252;2023-10-13T09:31:02;17.85;;;8.57;;
11338;SDS011;5724;42.684;23.252;2023-10-13T09:33:32;16.95;;;9.82;;
11338;SDS011;5724;42.684;23.252;2023-10-13T09:36:01;14.07;;;8.63;;
11338;SDS011;5724;42.684;23.252;2023-10-13T09:38:36;16.02;;;8.10;;
11338;SDS011;5724;42.684;23.252;2023-10-13T09:41:06;9.32;;;7.30;;
11338;SDS011;5724;42.684;23.252;2023-10-13T09:43:44;12.18;;;7.70;;
11338;SDS011;5724;42.684;23.252;2023-10-13T09:46:10;17.02;;;7.13;;
11338;SDS011;5724;42.684;23.252;2023-10-13T09:48:44;12.90;;;7.68;;
11338;SDS011;5724;42.684;23.252;2023-10-13T09:51:29;11.00;;;7.47;;
11338;SDS011;5724;42.684;23.252;2023-10-13T09:54:19;11.82;;;6.72;;
11338;SDS011;5724;42.684;23.252;2023-10-13T09:56:54;13.07;;;6.82;;
11338;SDS011;5724;42.684;23.252;2023-10-13T09:59:55;10.85;;;5.97;;
11338;SDS011;5724;42.684;23.252;2023-10-13T10:02:33;12.35;;;6.05;;
11338;SDS011;5724;42.684;23.252;2023-10-13T10:05:00;9.48;;;5.60;;
11338;SDS011;5724;42.684;23.252;2023-10-13T10:07:55;7.05;;;4.78;;
11338;SDS011;5724;42.684;23.252;2023-10-13T10:10:26;9.65;;;6.38;;
11338;SDS011;5724;42.684;23.252;2023-10-13T10:13:20;14.48;;;6.47;;
11338;SDS011;5724;42.684;23.252;2023-10-13T10:15:55;11.63;;;6.55;;
11338;SDS011;5724;42.684;23.252;2023-10-13T10:18:28;11.68;;;6.47;;
11338;SDS011;5724;42.684;23.252;2023-10-13T10:21:03;11.90;;;6.38;;
11338;SDS011;5724;42.684;23.252;2023-10-13T10:23:36;13.45;;;6.60;;
11338;SDS011;5724;42.684;23.252;2023-10-13T10:26:12;13.57;;;5.40;;
11338;SDS011;5724;42.684;23.252;2023-10-13T10:28:41;14.80;;;6.28;;
11338;SDS011;5724;42.684;23.252;2023-10-13T10:31:09;13.68;;;6.82;;
11338;SDS011;5724;42.684;23.252;2023-10-13T10:33:40;18.77;;;6.80;;
11338;SDS011;5724;42.684;23.252;2023-10-13T10:36:06;13.93;;;6.18;;
11338;SDS011;5724;42.684;23.252;2023-10-13T10:38:51;9.18;;;5.75;;
11338;SDS011;5724;42.684;23.252;2023-10-13T10:41:30;12.88;;;6.65;;
11338;SDS011;5724;42.684;23.252;2023-10-13T10:47:10;9.52;;;5.65;;
11338;SDS011;5724;42.684;23.252;2023-10-13T10:49:39;15.82;;;4.90;;
11338;SDS011;5724;42.684;23.252;2023-10-13T10:52:07;11.32;;;5.28;;
11338;SDS011;5724;42.684;23.252;2023-10-13T10:54:43;8.90;;;4.30;;
11338;SDS011;5724;42.684;23.252;2023-10-13T10:57:09;5.75;;;4.03;;
11338;SDS011;5724;42.684;23.252;2023-10-13T10:59:38;5.65;;;3.15;;
11338;SDS011;5724;42.684;23.252;2023-10-13T11:02:04;6.72;;;3.05;;
11338;SDS011;5724;42.684;23.252;2023-10-13T11:04:32;8.27;;;4.03;;
11338;SDS011;5724;42.684;23.252;2023-10-13T11:07:22;8.48;;;4.05;;
11338;SDS011;5724;42.684;23.252;2023-10-13T11:09:49;11.32;;;6.43;;
11338;SDS011;5724;42.684;23.252;2023-10-13T11:12:18;6.03;;;4.88;;
11338;SDS011;5724;42.684;23.252;2023-10-13T11:15:04;7.78;;;4.72;;
11338;SDS011;5724;42.684;23.252;2023-10-13T11:17:58;8.15;;;4.43;;
11338;SDS011;5724;42.684;23.252;2023-10-13T11:20:24;10.25;;;3.92;;
11338;SDS011;5724;42.684;23.252;2023-10-13T11:22:58;9.70;;;4.38;;
11338;SDS011;5724;42.684;23.252;2023-10-13T11:30:42;5.90;;;3.40;;
11338;SDS011;5724;42.684;23.252;2023-10-13T11:33:10;8.45;;;3.60;;
11338;SDS011;5724;42.684;23.252;2023-10-13T11:35:39;4.78;;;3.65;;
11338;SDS011;5724;42.684;23.252;2023-10-13T11:38:30;9.10;;;3.20;;
11338;SDS011;5724;42.684;23.252;2023-10-13T11:41:19;6.70;;;2.78;;
11338;SDS011;5724;42.684;23.252;2023-10-13T11:43:45;5.40;;;3.17;;
11338;SDS011;5724;42.684;23.252;2023-10-13T11:46:29;5.80;;;3.13;;
11338;SDS011;5724;42.684;23.252;2023-10-13T11:49:01;5.85;;;3.97;;
11338;SDS011;5724;42.684;23.252;2023-10-13T11:51:50;3.50;;;3.17;;
11338;SDS011;5724;42.684;23.252;2023-10-13T11:54:16;7.93;;;2.97;;
11338;SDS011;5724;42.684;23.252;2023-10-13T11:56:47;9.30;;;3.63;;
11338;SDS011;5724;42.684;23.252;2023-10-13T11:59:13;7.68;;;3.17;;
11338;SDS011;5724;42.684;23.252;2023-10-13T12:01:48;8.55;;;3.58;;
11338;SDS011;5724;42.684;23.252;2023-10-13T12:04:33;7.30;;;3.50;;
11338;SDS011;5724;42.684;23.252;2023-10-13T12:07:00;4.20;;;3.20;;
11338;SDS011;5724;42.684;23.252;2023-10-13T12:09:40;6.57;;;5.00;;
11338;SDS011;5724;42.684;23.252;2023-10-13T12:12:16;4.85;;;2.83;;
11338;SDS011;5724;42.684;23.252;2023-10-13T12:14:42;7.32;;;2.88;;
11338;SDS011;5724;42.684;23.252;2023-10-13T12:17:17;6.90;;;3.00;;
11338;SDS011;5724;42.684;23.252;2023-10-13T12:20:05;6.85;;;3.40;;
11338;SDS011;5724;42.684;23.252;2023-10-13T12:22:37;7.32;;;5.28;;
11338;SDS011;5724;42.684;23.252;2023-10-13T12:25:23;5.88;;;3.15;;
11338;SDS011;5724;42.684;23.252;2023-10-13T12:27:58;5.82;;;3.22;;
11338;SDS011;5724;42.684;23.252;2023-10-13T12:30:31;3.92;;;3.20;;
11338;SDS011;5724;42.684;23.252;2023-10-13T12:33:16;5.40;;;3.03;;
11338;SDS011;5724;42.684;23.252;2023-10-13T12:35:50;5.97;;;5.38;;
11338;SDS011;5724;42.684;23.252;2023-10-13T12:38:32;5.55;;;3.38;;
11338;SDS011;5724;42.684;23.252;2023-10-13T12:41:14;5.70;;;3.05;;
11338;SDS011;5724;42.684;23.252;2023-10-13T12:43:57;9.10;;;3.30;;
11338;SDS011;5724;42.684;23.252;2023-10-13T12:46:42;8.73;;;3.67;;
11338;SDS011;5724;42.684;23.252;2023-10-13T12:49:26;7.93;;;3.00;;
11338;SDS011;5724;42.684;23.252;2023-10-13T12:52:04;5.50;;;3.05;;
11338;SDS011;5724;42.684;23.252;2023-10-13T12:54:30;3.05;;;2.70;;
11338;SDS011;5724;42.684;23.252;2023-10-13T12:57:04;3.70;;;2.42;;
11338;SDS011;5724;42.684;23.252;2023-10-13T12:59:34;4.82;;;2.75;;
11338;SDS011;5724;42.684;23.252;2023-10-13T13:02:00;4.55;;;2.65;;
11338;SDS011;5724;42.684;23.252;2023-10-13T13:04:31;2.85;;;2.40;;
11338;SDS011;5724;42.684;23.252;2023-10-13T13:07:01;3.38;;;2.67;;
11338;SDS011;5724;42.684;23.252;2023-10-13T13:09:31;3.33;;;2.63;;
11338;SDS011;5724;42.684;23.252;2023-10-13T13:11:56;3.72;;;2.67;;
11338;SDS011;5724;42.684;23.252;2023-10-13T13:14:25;3.25;;;2.67;;
11338;SDS011;5724;42.684;23.252;2023-10-13T13:16:57;4.53;;;2.35;;
11338;SDS011;5724;42.684;23.252;2023-10-13T13:19:32;3.10;;;2.80;;
11338;SDS011;5724;42.684;23.252;2023-10-13T13:22:07;2.95;;;2.75;;
11338;SDS011;5724;42.684;23.252;2023-10-13T13:24:43;3.40;;;2.72;;
11338;SDS011;5724;42.684;23.252;2023-10-13T13:27:13;3.08;;;2.85;;
11338;SDS011;5724;42.684;23.252;2023-10-13T13:29:45;5.18;;;3.15;;
11338;SDS011;5724;42.684;23.252;2023-10-13T13:32:11;3.35;;;2.40;;
11338;SDS011;5724;42.684;23.252;2023-10-13T13:34:52;3.35;;;2.65;;
11338;SDS011;5724;42.684;23.252;2023-10-13T13:37:30;5.85;;;2.50;;
11338;SDS011;5724;42.684;23.252;2023-10-13T13:39:56;5.47;;;2.78;;
11338;SDS011;5724;42.684;23.252;2023-10-13T13:42:38;9.13;;;2.95;;
11338;SDS011;5724;42.684;23.252;2023-10-13T13:45:06;3.50;;;2.90;;
11338;SDS011;5724;42.684;23.252;2023-10-13T13:47:37;6.13;;;3.00;;
11338;SDS011;5724;42.684;23.252;2023-10-13T13:50:02;4.45;;;3.05;;
11338;SDS011;5724;42.684;23.252;2023-10-13T13:52:39;5.78;;;4.15;;
11338;SDS011;5724;42.684;23.252;2023-10-13T13:55:11;8.32;;;3.80;;
11338;SDS011;5724;42.684;23.252;2023-10-13T13:57:42;5.28;;;3.65;;
11338;SDS011;5724;42.684;23.252;2023-10-13T14:00:09;8.95;;;3.58;;
11338;SDS011;5724;42.684;23.252;2023-10-13T14:02:42;11.70;;;8.85;;
11338;SDS011;5724;42.684;23.252;2023-10-13T14:05:13;5.55;;;3.55;;
11338;SDS011;5724;42.684;23.252;2023-10-13T14:07:41;6.45;;;4.65;;
11338;SDS011;5724;42.684;23.252;2023-10-13T14:10:18;7.68;;;3.72;;
11338;SDS011;5724;42.684;23.252;2023-10-13T14:13:02;6.90;;;3.83;;
11338;SDS011;5724;42.684;23.252;2023-10-13T14:15:39;5.50;;;3.55;;
11338;SDS011;5724;42.684;23.252;2023-10-13T14:18:09;5.32;;;2.88;;
11338;SDS011;5724;42.684;23.252;2023-10-13T14:20:40;4.40;;;4.07;;
11338;SDS011;5724;42.684;23.252;2023-10-13T14:23:07;7.80;;;3.17;;
11338;SDS011;5724;42.684;23.252;2023-10-13T14:25:37;10.13;;;3.28;;
11338;SDS011;5724;42.684;23.252;2023-10-13T14:28:06;6.80;;;4.22;;
11338;SDS011;5724;42.684;23.252;2023-10-13T14:30:32;6.15;;;3.45;;
11338;SDS011;5724;42.684;23.252;2023-10-13T14:32:58;8.48;;;3.35;;
11338;SDS011;5724;42.684;23.252;2023-10-13T14:35:24;8.95;;;3.53;;
11338;SDS011;5724;42.684;23.252;2023-10-13T14:37:54;8.07;;;4.25;;
11338;SDS011;5724;42.684;23.252;2023-10-13T14:40:20;8.07;;;3.40;;
11338;SDS011;5724;42.684;23.252;2023-10-13T14:42:48;9.95;;;4.15;;
11338;SDS011;5724;42.684;23.252;2023-10-13T14:45:14;7.63;;;3.67;;
11338;SDS011;5724;42.684;23.252;2023-10-13T14:47:44;10.60;;;5.80;;
11338;SDS011;5724;42.684;23.252;2023-10-13T14:50:12;7.03;;;3.67;;
11338;SDS011;5724;42.684;23.252;2023-10-13T14:52:47;7.95;;;4.50;;
11338;SDS011;5724;42.684;23.252;2023-10-13T14:55:15;12.38;;;4.55;;
11338;SDS011;5724;42.684;23.252;2023-10-13T14:57:47;13.70;;;4.50;;
11338;SDS011;5724;42.684;23.252;2023-10-13T15:00:15;10.55;;;4.10;;
11338;SDS011;5724;42.684;23.252;2023-10-13T15:02:46;7.88;;;4.18;;
11338;SDS011;5724;42.684;23.252;2023-10-13T15:05:11;9.70;;;3.65;;
11338;SDS011;5724;42.684;23.252;2023-10-13T15:07:42;7.28;;;3.88;;
11338;SDS011;5724;42.684;23.252;2023-10-13T15:10:14;11.02;;;4.00;;
11338;SDS011;5724;42.684;23.252;2023-10-13T15:12:41;9.60;;;3.58;;
11338;SDS011;5724;42.684;23.252;2023-10-13T15:15:08;10.02;;;3.55;;
11338;SDS011;5724;42.684;23.252;2023-10-13T15:17:38;14.00;;;3.40;;
11338;SDS011;5724;42.684;23.252;2023-10-13T15:20:05;11.48;;;3.92;;
11338;SDS011;5724;42.684;23.252;2023-10-13T15:22:36;10.60;;;3.75;;
11338;SDS011;5724;42.684;23.252;2023-10-13T15:25:03;12.38;;;3.60;;
11338;SDS011;5724;42.684;23.252;2023-10-13T15:27:46;7.60;;;3.17;;
11338;SDS011;5724;42.684;23.252;2023-10-13T15:30:21;14.05;;;3.95;;
11338;SDS011;5724;42.684;23.252;2023-10-13T15:32:51;6.97;;;5.60;;
11338;SDS011;5724;42.684;23.252;2023-10-13T15:35:18;10.35;;;3.75;;
11338;SDS011;5724;42.684;23.252;2023-10-13T15:37:48;8.52;;;3.47;;